Terminal Aerodrome Forecast
Issued by NWS Sioux Falls, SD

Home | Current Version | Previous Version | Graphics & Text | Print | Product List | Glossary On
Versions: 1 2 3 4 5 6 7 8 9 10 11 12 13 14 15 16 17 18 19 20 21 22 23 24 25 26 27 28 29 30 31 32
958
FTUS43 KFSD 231729
TAFSUX
TAF
KSUX 231729Z 2318/2418 34013KT P6SM SKC
     FM240000 02007KT P6SM SKC
     FM240600 08004KT P6SM SKC
     FM241000 VRB03KT 2SM BR SCT006
     FM241400 13005KT P6SM FEW250=

USA.gov is the U.S. government's official web portal to all federal, state and local government web resources and services.